aviador You're here:

KPNS Decoded Metar

PENSACOLA in FL, USA
Report Time2017-05-23 19:53:00
UTC Time2017-05-23 20:39:08
Flight Rules mvfr MVFR
Wind220° at 19 Gusting to 25 kt
W.Decomp.*RWY 26: 15.0 kt HW 11.7 kt LCW
RWY 17: 11.7 kt HW 15.0 kt RCW
W.Rank220° ranks 19
Current wind is above 220° avg. (7.5)
Visibility9999 m
Phenomena:N/A
Clouds:Broken 025 Hf
Expected CloudBase > 3,200 ft AGL from Temp-Dew spread
Ceiling2,500 ft
Temp29°C (ISA +14)
Dew Point21°C (62% RH)
Heat Index31.3°C
AAT26.3°C
QNH1006 hPa
Density Alt2,326 ft
Elevation125 ft
Report Wrong Elevation
Raw Report
METAR KPNS 231953Z 22019G25KT 10SM BKN025 29/21 A2972 RMK AO2 PK WND
20028/1931 SLP066 T02890211=

Extra information for KPNS:More info

Metar Taf Metar & Taf Last 4 Metars F.Rules Stats Wind Profile Meteogram Temp Stats Airport Information Weather charts Add Link Nearby VenuesMetar ALERT Operation Metar Decoded Social comments

AIRNAV info for KPNS